Time;durP1;ratioP1;P1;durP2;ratioP2;P2;SDS_P1;SDS_P2;PMS_P1;PMS_P2;Temp;Humidity;BMP_temperature;BMP_pressure;BME280_temperature;BME280_humidity;BME280_pressure;Samples;Min_cycle;Max_cycle;Signal;HPM_P1;HPM_P2
2021/11/11 00:00:14;;;;;;;0.20;0.20;;;;;;;0.66;100.00;101069.31;5025540;28;20487;-50
2021/11/11 00:02:42;;;;;;;0.30;0.23;;;;;;;0.77;100.00;101066.13;5026677;28;20470;-50
2021/11/11 00:05:09;;;;;;;0.20;0.10;;;;;;;0.89;100.00;101065.53;5009225;28;20457;-50
2021/11/11 00:07:37;;;;;;;0.20;0.10;;;;;;;0.82;100.00;101071.44;5019772;28;20515;-50
2021/11/11 00:10:06;;;;;;;0.20;0.10;;;;;;;0.86;100.00;101070.69;5023527;28;20456;-52
2021/11/11 00:12:34;;;;;;;2.40;2.30;;;;;;;0.86;100.00;101068.09;5026323;28;20526;-50
2021/11/11 00:15:07;;;;;;;0.20;0.10;;;;;;;0.92;100.00;101065.59;5023118;28;20452;-50
2021/11/11 00:17:34;;;;;;;0.20;0.10;;;;;;;0.98;100.00;101067.47;5019326;28;20491;-50
2021/11/11 00:20:01;;;;;;;2.47;2.37;;;;;;;0.90;100.00;101062.06;5021831;28;20478;-50
2021/11/11 00:22:28;;;;;;;0.20;0.10;;;;;;;0.94;100.00;101058.66;5025868;28;20488;-49
2021/11/11 00:24:54;;;;;;;0.20;0.10;;;;;;;0.85;100.00;101059.34;5024216;28;20463;-50
2021/11/11 00:27:21;;;;;;;0.20;0.10;;;;;;;0.88;100.00;101064.66;5019385;28;20440;-50
2021/11/11 00:29:48;;;;;;;0.20;0.10;;;;;;;1.01;100.00;101062.31;5021014;28;20451;-49
2021/11/11 00:32:14;;;;;;;0.20;0.10;;;;;;;0.93;100.00;101059.50;5022460;28;20807;-50
2021/11/11 00:34:43;;;;;;;0.20;0.10;;;;;;;0.95;100.00;101060.41;5020999;28;20476;-49
2021/11/11 00:37:10;;;;;;;0.20;0.10;;;;;;;0.94;100.00;101058.66;5025491;28;20488;-50
2021/11/11 00:39:37;;;;;;;0.20;0.13;;;;;;;0.94;100.00;101060.38;5024557;28;20871;-49
2021/11/11 00:42:04;;;;;;;0.20;0.10;;;;;;;1.04;100.00;101065.00;5018991;28;20479;-52
2021/11/11 00:44:31;;;;;;;0.20;0.10;;;;;;;0.91;100.00;101066.44;5019683;28;20456;-50
2021/11/11 00:46:58;;;;;;;0.20;0.10;;;;;;;1.00;100.00;101063.16;5025587;28;20942;-50
2021/11/11 00:49:25;;;;;;;0.40;0.37;;;;;;;1.02;100.00;101059.72;5025626;28;20472;-50
2021/11/11 00:51:51;;;;;;;0.20;0.10;;;;;;;0.99;100.00;101058.78;5018817;28;20543;-49
2021/11/11 00:54:18;;;;;;;0.73;0.73;;;;;;;0.98;100.00;101059.63;5019097;28;20449;-50
2021/11/11 00:56:45;;;;;;;0.20;0.10;;;;;;;0.94;100.00;101057.78;5006226;28;20582;-50
2021/11/11 00:59:12;;;;;;;0.20;0.20;;;;;;;0.90;100.00;101048.97;5018819;28;20476;-49
2021/11/11 01:01:39;;;;;;;0.20;0.10;;;;;;;0.88;100.00;101041.09;5024326;28;20947;-50
2021/11/11 01:04:06;;;;;;;0.20;0.10;;;;;;;0.94;100.00;101035.09;5025330;28;20451;-50
2021/11/11 01:06:33;;;;;;;0.20;0.20;;;;;;;0.85;100.00;101027.94;5019575;28;20452;-49
2021/11/11 01:09:00;;;;;;;0.23;0.17;;;;;;;0.93;100.00;101033.34;5019272;28;20481;-49
2021/11/11 01:11:27;;;;;;;0.20;0.10;;;;;;;1.06;100.00;101042.34;5025147;28;20449;-49
2021/11/11 01:14:13;;;;;;;0.20;0.10;;;;;;;0.93;100.00;101041.19;5025922;28;20556;-50
2021/11/11 01:16:40;;;;;;;0.30;0.30;;;;;;;0.90;100.00;101046.34;5023756;28;20448;-50
2021/11/11 01:19:07;;;;;;;0.20;0.10;;;;;;;0.96;100.00;101054.38;5022700;28;20507;-50
2021/11/11 01:21:33;;;;;;;0.20;0.10;;;;;;;0.83;100.00;101040.13;5026005;28;20460;-49
2021/11/11 01:24:00;;;;;;;0.20;0.10;;;;;;;0.79;100.00;101043.50;5017417;28;20448;-50
2021/11/11 01:26:27;;;;;;;0.50;0.50;;;;;;;0.74;100.00;101047.75;5016252;28;20444;-50
2021/11/11 01:28:53;;;;;;;0.20;0.10;;;;;;;0.76;100.00;101051.28;5029112;28;20502;-49
2021/11/11 01:31:20;;;;;;;0.20;0.10;;;;;;;0.90;100.00;101046.34;5020887;28;20499;-49
2021/11/11 01:33:47;;;;;;;0.20;0.10;;;;;;;0.95;100.00;101049.06;5029342;28;20503;-50
2021/11/11 01:36:13;;;;;;;0.20;0.20;;;;;;;0.85;100.00;101043.66;5027024;28;20521;-50
2021/11/11 01:38:40;;;;;;;0.80;0.80;;;;;;;0.97;100.00;101053.50;5022237;28;20553;-49
2021/11/11 01:41:07;;;;;;;0.40;0.37;;;;;;;1.05;100.00;101048.44;5024442;28;20937;-49
2021/11/11 01:43:33;;;;;;;0.20;0.10;;;;;;;0.84;100.00;101046.22;5029032;28;20452;-49
2021/11/11 01:46:00;;;;;;;5.17;1.33;;;;;;;0.86;100.00;101047.16;5027140;28;20447;-49
2021/11/11 01:48:27;;;;;;;0.20;0.10;;;;;;;0.86;100.00;101049.75;5021153;28;20463;-50
2021/11/11 01:50:54;;;;;;;0.20;0.10;;;;;;;0.89;100.00;101047.22;5023478;28;20953;-50
2021/11/11 01:53:21;;;;;;;0.20;0.10;;;;;;;0.82;100.00;101042.66;5028888;28;21005;-50
2021/11/11 01:55:49;;;;;;;1.20;1.20;;;;;;;0.90;100.00;101046.34;5027817;28;20995;-50
2021/11/11 01:58:16;;;;;;;0.73;0.73;;;;;;;0.96;100.00;101050.84;5018191;28;21061;-49
2021/11/11 02:00:52;;;;;;;0.20;0.10;;;;;;;0.82;100.00;101053.13;5018917;28;20934;-49
2021/11/11 02:03:21;;;;;;;0.20;0.10;;;;;;;0.76;100.00;101042.53;5010029;28;20836;-50
2021/11/11 02:05:48;;;;;;;0.20;0.10;;;;;;;0.70;100.00;101043.28;5022022;28;20503;-50
2021/11/11 02:08:17;;;;;;;0.20;0.10;;;;;;;0.54;100.00;101043.75;5027482;28;20491;-49
2021/11/11 02:10:44;;;;;;;0.20;0.10;;;;;;;0.58;100.00;101046.50;5028724;28;21045;-49
2021/11/11 02:13:12;;;;;;;0.20;0.10;;;;;;;0.58;100.00;101043.00;5023359;28;20451;-50
2021/11/11 02:15:39;;;;;;;0.20;0.20;;;;;;;0.50;100.00;101039.31;5021676;28;20453;-50
2021/11/11 02:18:08;;;;;;;0.20;0.13;;;;;;;0.40;100.00;101042.53;5025233;28;21025;-49
2021/11/11 02:20:41;;;;;;;0.20;0.20;;;;;;;0.34;100.00;101042.41;5028453;28;20451;-49
2021/11/11 02:23:10;;;;;;;0.20;0.10;;;;;;;0.48;100.00;101043.63;5019979;28;20452;-50
2021/11/11 02:25:38;;;;;;;0.20;0.20;;;;;;;0.42;100.00;101046.09;5024110;28;20448;-49
2021/11/11 02:28:08;;;;;;;0.20;0.20;;;;;;;0.51;100.00;101047.19;5025505;28;20514;-50
2021/11/11 02:30:36;;;;;;;0.20;0.20;;;;;;;0.76;100.00;101050.38;5021415;28;20448;-50
2021/11/11 02:33:17;;;;;;;0.20;0.10;;;;;;;0.80;100.00;101041.75;5017740;28;20952;-50
2021/11/11 02:35:45;;;;;;;0.20;0.10;;;;;;;0.76;100.00;101034.69;5027992;28;20448;-50
2021/11/11 02:38:13;;;;;;;0.20;0.10;;;;;;;0.48;100.00;101038.38;5027537;28;21039;-49
2021/11/11 02:40:41;;;;;;;0.20;0.10;;;;;;;0.67;100.00;101043.19;5022310;28;20950;-50
2021/11/11 02:43:09;;;;;;;1.27;1.27;;;;;;;0.62;100.00;101050.06;5020986;28;20456;-49
2021/11/11 02:45:39;;;;;;;0.20;0.10;;;;;;;0.77;100.00;101049.53;5026545;28;20453;-50
2021/11/11 02:48:07;;;;;;;0.20;0.10;;;;;;;0.66;100.00;101048.41;5027807;28;20502;-50
2021/11/11 02:50:35;;;;;;;0.20;0.10;;;;;;;0.73;100.00;101048.59;5023370;28;20455;-50
2021/11/11 02:53:03;;;;;;;0.20;0.10;;;;;;;0.78;100.00;101046.97;5017716;28;20869;-52
2021/11/11 02:55:30;;;;;;;0.77;0.77;;;;;;;0.77;100.00;101044.31;5014112;28;20498;-49
2021/11/11 02:57:58;;;;;;;0.20;0.10;;;;;;;0.71;100.00;101055.53;5021199;28;20553;-49
2021/11/11 03:00:29;;;;;;;0.20;0.10;;;;;;;0.72;100.00;101049.44;5024826;28;20503;-49
2021/11/11 03:02:56;;;;;;;0.20;0.20;;;;;;;0.95;100.00;101051.69;5027769;28;20449;-49
2021/11/11 03:05:29;;;;;;;0.40;0.40;;;;;;;1.08;100.00;101036.28;5024980;28;20448;-50
2021/11/11 03:07:56;;;;;;;0.40;0.40;;;;;;;1.20;100.00;101035.66;5020581;28;20525;-49
2021/11/11 03:10:25;;;;;;;0.20;0.10;;;;;;;1.00;100.00;101040.50;5022592;28;20866;-49
2021/11/11 03:12:53;;;;;;;0.20;0.10;;;;;;;0.91;100.00;101035.03;5027500;28;20546;-52
2021/11/11 03:15:22;;;;;;;0.20;0.10;;;;;;;0.83;100.00;101047.09;5026050;28;20506;-52
2021/11/11 03:17:49;;;;;;;0.20;0.10;;;;;;;0.88;100.00;101046.31;5020471;28;20519;-51
2021/11/11 03:20:17;;;;;;;0.20;0.20;;;;;;;0.97;100.00;101044.78;5021484;28;20599;-51
2021/11/11 03:22:44;;;;;;;0.20;0.10;;;;;;;1.01;100.00;101044.00;5027228;28;20860;-52
2021/11/11 03:25:13;;;;;;;0.27;0.17;;;;;;;0.93;100.00;101046.41;5026044;28;20887;-51
2021/11/11 03:27:40;;;;;;;0.20;0.10;;;;;;;1.22;100.00;101044.44;5021512;28;20464;-51
2021/11/11 03:30:13;;;;;;;0.20;0.10;;;;;;;1.02;100.00;101049.25;5020099;28;20499;-49
2021/11/11 03:32:41;;;;;;;0.20;0.10;;;;;;;0.94;100.00;101050.81;5025612;28;20482;-50
2021/11/11 03:35:10;;;;;;;0.20;0.10;;;;;;;0.85;100.00;101051.50;5020233;28;20487;-51
2021/11/11 03:37:37;;;;;;;0.27;0.23;;;;;;;1.05;100.00;101051.94;5024113;28;20550;-50
2021/11/11 03:40:09;;;;;;;0.20;0.10;;;;;;;1.01;100.00;101050.09;5026229;28;20457;-50
2021/11/11 03:42:36;;;;;;;0.20;0.10;;;;;;;0.92;100.00;101044.66;5023937;28;20995;-50
2021/11/11 03:45:05;;;;;;;0.50;0.50;;;;;;;0.95;100.00;101047.34;5018961;28;20451;-50
2021/11/11 03:47:32;;;;;;;0.37;0.37;;;;;;;1.00;100.00;101043.09;5022148;28;20472;-49
2021/11/11 03:49:58;;;;;;;0.20;0.10;;;;;;;0.94;100.00;101053.41;5026804;28;20448;-49
2021/11/11 03:52:25;;;;;;;0.20;0.10;;;;;;;0.89;100.00;101047.22;5024694;28;20813;-50
2021/11/11 03:54:52;;;;;;;0.20;0.10;;;;;;;0.80;100.00;101045.25;5019775;28;20510;-50
2021/11/11 03:57:19;;;;;;;0.20;0.10;;;;;;;0.76;100.00;101046.03;5021101;28;20460;-50
2021/11/11 03:59:45;;;;;;;0.30;0.20;;;;;;;0.80;100.00;101042.63;5051844;22;20545;-48
2021/11/11 04:02:13;;;;;;;0.20;0.13;;;;;;;0.79;100.00;101047.84;5041392;28;20444;-49
2021/11/11 04:04:41;;;;;;;0.20;0.17;;;;;;;0.74;100.00;101039.00;5046891;28;20510;-49
2021/11/11 04:07:08;;;;;;;0.20;0.10;;;;;;;0.71;100.00;101047.69;5046389;28;20517;-48
2021/11/11 04:09:35;;;;;;;0.20;0.10;;;;;;;0.69;100.00;101038.91;5016001;28;21054;-49
2021/11/11 04:12:03;;;;;;;0.20;0.10;;;;;;;0.88;100.00;101037.59;5033653;28;20455;-50
2021/11/11 04:14:31;;;;;;;0.20;0.10;;;;;;;0.80;100.00;101033.91;5033299;28;20478;-48
2021/11/11 04:16:58;;;;;;;0.30;0.20;;;;;;;0.80;100.00;101026.94;5032818;28;20452;-49
2021/11/11 04:19:26;;;;;;;0.20;0.10;;;;;;;0.76;100.00;101021.59;5032752;28;20495;-48
2021/11/11 04:21:52;;;;;;;0.20;0.10;;;;;;;0.94;100.00;101019.41;5015074;28;20956;-48
2021/11/11 04:24:19;;;;;;;0.20;0.10;;;;;;;1.30;100.00;101027.16;5010447;28;20451;-50
2021/11/11 04:29:56;;;;;;;0.20;0.10;;;;;;;0.94;100.00;101024.63;5001702;28;20467;-49
2021/11/11 04:32:23;;;;;;;0.67;0.67;;;;;;;1.20;100.00;101030.44;5025077;28;20460;-50
2021/11/11 04:34:55;;;;;;;0.67;0.63;;;;;;;0.73;100.00;101030.28;5033548;28;20452;-49
2021/11/11 04:37:31;;;;;;;0.20;0.10;;;;;;;0.88;100.00;101035.84;5008960;28;20475;-49
2021/11/11 04:47:56;;;;;;;0.20;0.10;;;;;;;0.87;100.00;101031.47;5032966;28;20994;-49
2021/11/11 04:51:16;;;;;;;0.20;0.10;;;;;;;0.85;100.00;101035.78;5032448;28;20877;-48
2021/11/11 05:04:31;;;;;;;0.20;0.10;;;;;;;0.92;100.00;101039.41;4990718;28;20488;-48
2021/11/11 05:07:01;;;;;;;0.20;0.10;;;;;;;0.84;100.00;101047.13;5025148;28;20543;-49
2021/11/11 05:09:27;;;;;;;0.20;0.10;;;;;;;0.85;100.00;101050.63;5032212;28;20478;-48
2021/11/11 05:11:54;;;;;;;2.77;2.53;;;;;;;0.76;100.00;101053.88;5032239;28;20535;-49
2021/11/11 05:14:21;;;;;;;0.20;0.10;;;;;;;0.83;100.00;101055.81;5031973;28;20452;-48
2021/11/11 05:16:47;;;;;;;0.20;0.10;;;;;;;0.99;100.00;101056.16;5032496;28;20444;-49
2021/11/11 05:19:14;;;;;;;0.30;0.20;;;;;;;0.93;100.00;101056.88;5032549;28;20495;-48
2021/11/11 05:21:41;;;;;;;0.20;0.10;;;;;;;0.79;100.00;101061.81;5032433;28;20451;-48
2021/11/11 05:24:10;;;;;;;0.20;0.10;;;;;;;0.84;100.00;101062.81;5026587;28;20998;-48
2021/11/11 05:26:39;;;;;;;0.20;0.10;;;;;;;0.93;100.00;101048.16;5020104;28;21004;-49
2021/11/11 05:29:06;;;;;;;0.20;0.10;;;;;;;0.97;100.00;101042.16;5031554;28;20524;-48
2021/11/11 05:31:33;;;;;;;0.20;0.10;;;;;;;1.01;100.00;101037.03;5024681;28;20514;-49
2021/11/11 05:34:00;;;;;;;0.20;0.10;;;;;;;0.80;100.00;101047.00;5031664;28;20475;-48
2021/11/11 05:36:26;;;;;;;0.20;0.10;;;;;;;0.80;100.00;101047.88;5002442;28;20476;-48
2021/11/11 05:38:53;;;;;;;0.20;0.20;;;;;;;0.94;100.00;101049.91;5031716;28;20523;-48
2021/11/11 05:41:20;;;;;;;0.20;0.10;;;;;;;0.94;100.00;101060.38;5031920;28;21028;-48
2021/11/11 05:43:46;;;;;;;0.20;0.10;;;;;;;0.82;100.00;101055.75;5032008;28;20826;-48
2021/11/11 05:46:13;;;;;;;0.30;0.20;;;;;;;0.72;100.00;101070.38;5033438;28;20478;-49
2021/11/11 05:48:40;;;;;;;0.30;0.20;;;;;;;0.69;100.00;101062.47;5014394;28;20538;-48
2021/11/11 05:51:07;;;;;;;0.20;0.20;;;;;;;0.53;100.00;101074.25;5031786;28;20498;-48
2021/11/11 05:53:33;;;;;;;0.20;0.10;;;;;;;0.45;100.00;101070.59;5025813;28;20504;-48
2021/11/11 05:56:00;;;;;;;0.20;0.10;;;;;;;0.50;100.00;101074.19;5025225;28;20502;-48
2021/11/11 05:58:27;;;;;;;0.20;0.10;;;;;;;0.39;100.00;101082.59;5031770;28;20846;-48
2021/11/11 06:00:53;;;;;;;0.20;0.10;;;;;;;0.17;100.00;101087.31;5031705;28;20901;-48
2021/11/11 06:03:20;;;;;;;0.67;0.67;;;;;;;-0.01;100.00;101092.91;5007998;28;20456;-48
2021/11/11 06:05:47;;;;;;;0.20;0.10;;;;;;;0.31;100.00;101085.03;5035447;28;20452;-49
2021/11/11 06:08:13;;;;;;;0.20;0.10;;;;;;;0.23;100.00;101078.72;5035491;28;20443;-48
2021/11/11 06:10:40;;;;;;;0.20;0.10;;;;;;;0.27;100.00;101081.47;5034865;28;20468;-49
2021/11/11 06:13:06;;;;;;;0.20;0.10;;;;;;;0.17;100.00;101076.84;5035089;28;20501;-49
2021/11/11 06:15:33;;;;;;;0.20;0.10;;;;;;;0.15;100.00;101077.66;5034876;28;20452;-48
2021/11/11 06:18:00;;;;;;;0.20;0.10;;;;;;;-0.11;100.00;101077.84;5035166;28;20458;-48
2021/11/11 06:20:39;;;;;;;0.20;0.10;;;;;;;-0.03;100.00;101083.25;5034793;28;20522;-50
2021/11/11 06:23:07;;;;;;;0.20;0.10;;;;;;;-0.16;100.00;101079.41;5032701;28;20451;-48
2021/11/11 06:25:34;;;;;;;0.20;0.10;;;;;;;-0.16;100.00;101087.25;5027308;28;20445;-48
2021/11/11 06:28:02;;;;;;;0.20;0.10;;;;;;;-0.31;100.00;101087.72;5025137;28;20861;-47
2021/11/11 06:30:29;;;;;;;0.20;0.10;;;;;;;0.03;100.00;101078.22;5034786;28;20517;-48
2021/11/11 06:32:55;;;;;;;0.20;0.10;;;;;;;-0.16;100.00;101084.66;5027484;28;20455;-48
2021/11/11 06:35:27;;;;;;;0.20;0.10;;;;;;;-0.03;100.00;101093.72;5035807;28;20460;-48
2021/11/11 06:37:54;;;;;;;0.30;0.20;;;;;;;0.11;100.00;101094.06;5035831;28;20802;-48
2021/11/11 06:40:21;;;;;;;0.20;0.10;;;;;;;-0.24;100.00;101085.31;5035115;28;20467;-48
2021/11/11 06:42:47;;;;;;;0.20;0.10;;;;;;;-0.12;100.00;101096.97;5035417;28;20447;-48
2021/11/11 06:45:15;;;;;;;0.20;0.10;;;;;;;-0.20;100.00;101094.97;5035420;28;20513;-49
2021/11/11 06:47:42;;;;;;;0.20;0.10;;;;;;;-0.18;100.00;101094.19;5035162;28;20534;-48
2021/11/11 06:50:11;;;;;;;0.20;0.10;;;;;;;-0.19;100.00;101101.97;5028838;28;20468;-48
2021/11/11 06:52:39;;;;;;;0.20;0.10;;;;;;;0.06;100.00;101108.75;5027034;28;20482;-48
2021/11/11 06:55:06;;;;;;;0.20;0.10;;;;;;;-0.15;100.00;101115.16;5021870;28;21373;-48
2021/11/11 06:57:33;;;;;;;0.20;0.10;;;;;;;-0.07;100.00;101112.78;5034476;28;20451;-47
2021/11/11 07:00:01;;;;;;;0.20;0.10;;;;;;;0.03;100.00;101113.91;5034057;28;20524;-49
2021/11/11 07:02:28;;;;;;;0.20;0.10;;;;;;;0.10;100.00;101116.72;5034436;28;20526;-49
2021/11/11 07:04:55;;;;;;;0.20;0.10;;;;;;;0.09;100.00;101125.41;5035411;28;20454;-48
2021/11/11 07:07:22;;;;;;;0.20;0.10;;;;;;;0.32;100.00;101127.75;5034824;28;20968;-48
2021/11/11 07:09:49;;;;;;;0.20;0.10;;;;;;;0.06;100.00;101133.16;5035617;28;20468;-49
2021/11/11 07:12:15;;;;;;;0.20;0.10;;;;;;;0.05;100.00;101138.34;5034779;28;20501;-48
2021/11/11 07:14:43;;;;;;;0.20;0.10;;;;;;;-0.02;100.00;101134.66;5033392;28;20448;-48
2021/11/11 07:17:10;;;;;;;0.20;0.10;;;;;;;0.16;100.00;101142.16;5034147;28;20479;-47
2021/11/11 07:19:37;;;;;;;0.20;0.13;;;;;;;0.30;100.00;101138.19;5033894;28;20495;-49
2021/11/11 07:22:05;;;;;;;0.20;0.10;;;;;;;0.46;100.00;101148.19;5033874;28;20451;-48
2021/11/11 07:24:32;;;;;;;0.20;0.10;;;;;;;0.52;100.00;101140.50;5028668;28;20462;-48
2021/11/11 07:26:59;;;;;;;0.20;0.10;;;;;;;0.59;100.00;101134.59;5020294;28;20444;-49
2021/11/11 07:29:28;;;;;;;0.20;0.10;;;;;;;0.58;100.00;101145.00;5033725;28;20511;-48
2021/11/11 07:31:56;;;;;;;0.20;0.10;;;;;;;0.62;100.00;101151.19;5025546;28;20464;-48
2021/11/11 07:34:24;;;;;;;0.20;0.10;;;;;;;0.86;100.00;101146.59;5034623;28;20451;-49
2021/11/11 07:36:53;;;;;;;0.20;0.10;;;;;;;0.89;100.00;101154.50;5034448;28;20503;-48
2021/11/11 07:39:21;;;;;;;0.20;0.10;;;;;;;1.03;100.00;101147.88;5034097;28;20491;-53
2021/11/11 07:41:49;;;;;;;0.20;0.10;;;;;;;0.88;100.00;101155.34;5034335;28;20452;-48
2021/11/11 07:44:16;;;;;;;0.20;0.10;;;;;;;0.81;100.00;101167.38;5034054;28;20863;-48
2021/11/11 07:46:43;;;;;;;0.20;0.10;;;;;;;0.75;100.00;101171.59;5034290;28;20448;-49
2021/11/11 07:49:10;;;;;;;0.30;0.20;;;;;;;0.81;100.00;101164.75;5033221;28;20467;-48
2021/11/11 07:51:37;;;;;;;0.20;0.10;;;;;;;0.90;100.00;101166.75;5033179;28;20452;-48
2021/11/11 07:54:04;;;;;;;0.20;0.10;;;;;;;0.82;100.00;101173.50;5023119;28;20457;-49
2021/11/11 07:56:33;;;;;;;0.37;0.37;;;;;;;0.93;100.00;101163.31;5031172;28;20456;-48
2021/11/11 07:59:00;;;;;;;0.20;0.10;;;;;;;1.06;100.00;101165.38;5025787;28;20624;-48
2021/11/11 08:01:27;;;;;;;0.20;0.10;;;;;;;0.96;100.00;101166.00;5020745;28;20823;-49
2021/11/11 08:03:53;;;;;;;0.20;0.10;;;;;;;1.09;100.00;101158.47;5033831;28;20458;-48
2021/11/11 08:06:20;;;;;;;0.20;0.10;;;;;;;0.95;100.00;101159.88;5033756;28;20444;-50
2021/11/11 08:08:51;;;;;;;0.33;0.33;;;;;;;1.01;100.00;101173.13;5033894;28;20795;-48
2021/11/11 08:11:18;;;;;;;0.20;0.10;;;;;;;1.55;100.00;101172.63;5019948;28;20451;-49
2021/11/11 08:13:45;;;;;;;0.20;0.20;;;;;;;1.48;100.00;101173.34;5033936;28;20456;-49
2021/11/11 08:16:12;;;;;;;0.20;0.10;;;;;;;1.58;100.00;101167.47;5033787;28;20454;-49
2021/11/11 08:18:38;;;;;;;0.43;0.40;;;;;;;1.24;100.00;101163.22;5032805;28;20483;-49
2021/11/11 08:21:05;;;;;;;0.20;0.10;;;;;;;1.23;100.00;101153.56;5032867;28;20452;-49
2021/11/11 08:23:32;;;;;;;0.20;0.10;;;;;;;1.68;100.00;101158.06;5032731;28;20448;-50
2021/11/11 08:26:03;;;;;;;0.20;0.10;;;;;;;1.39;100.00;101158.31;5025515;28;20444;-49
2021/11/11 08:28:31;;;;;;;0.20;0.13;;;;;;;1.34;100.00;101161.66;5027088;28;20921;-49
2021/11/11 08:30:58;;;;;;;0.20;0.10;;;;;;;1.28;100.00;101162.41;5018181;28;20456;-49
2021/11/11 08:33:25;;;;;;;0.20;0.10;;;;;;;1.59;100.00;101170.97;5027068;28;20447;-49
2021/11/11 08:35:52;;;;;;;0.20;0.10;;;;;;;1.69;100.00;101168.56;5032737;28;20452;-49
2021/11/11 08:38:19;;;;;;;0.20;0.10;;;;;;;1.53;100.00;101166.47;5032434;28;20506;-49
2021/11/11 08:40:47;;;;;;;0.20;0.10;;;;;;;1.67;100.00;101164.16;5032609;28;20531;-49
2021/11/11 08:43:13;;;;;;;0.20;0.10;;;;;;;1.54;100.00;101168.25;5033290;28;20447;-49
2021/11/11 08:45:40;;;;;;;0.20;0.20;;;;;;;1.57;100.00;101167.44;5033619;28;20510;-50
2021/11/11 08:48:07;;;;;;;0.20;0.10;;;;;;;1.53;100.00;101158.63;5032286;28;21022;-49
2021/11/11 08:50:36;;;;;;;0.20;0.20;;;;;;;1.57;100.00;101157.84;5032467;28;20464;-49
2021/11/11 08:53:06;;;;;;;0.20;0.10;;;;;;;1.66;100.00;101155.41;5032144;28;20929;-49
2021/11/11 08:55:34;;;;;;;1.70;1.23;;;;;;;1.74;100.00;101161.69;5014972;28;20974;-49
2021/11/11 08:58:07;;;;;;;0.20;0.10;;;;;;;1.91;100.00;101158.53;5035519;28;20470;-49
2021/11/11 09:00:37;;;;;;;0.20;0.10;;;;;;;1.87;100.00;101162.84;5028272;28;20495;-49
2021/11/11 09:03:04;;;;;;;0.20;0.20;;;;;;;2.27;100.00;101161.00;5032570;28;20774;-49
2021/11/11 09:05:35;;;;;;;0.20;0.10;;;;;;;2.02;100.00;101157.91;5032419;28;20929;-49
2021/11/11 09:08:03;;;;;;;0.30;0.20;;;;;;;1.97;100.00;101169.16;5034226;28;20447;-49
2021/11/11 09:10:34;;;;;;;0.20;0.10;;;;;;;2.16;100.00;101160.78;5032431;28;20569;-50
2021/11/11 09:13:22;;;;;;;0.20;0.20;;;;;;;2.20;100.00;101161.75;5032632;28;20439;-49
2021/11/11 09:15:48;;;;;;;0.20;0.10;;;;;;;2.40;100.00;101162.13;5032042;28;20857;-49
2021/11/11 09:18:16;;;;;;;0.20;0.10;;;;;;;2.24;100.00;101160.94;5032007;28;20506;-49
2021/11/11 09:20:58;;;;;;;0.47;0.47;;;;;;;2.36;100.00;101169.06;5032300;28;20491;-49
2021/11/11 09:23:25;;;;;;;0.20;0.10;;;;;;;2.55;100.00;101167.66;5032109;28;20451;-49
2021/11/11 09:25:52;;;;;;;0.50;0.50;;;;;;;2.70;100.00;101161.78;5026232;28;20441;-50
2021/11/11 09:28:19;;;;;;;0.20;0.10;;;;;;;2.82;100.00;101169.88;5024776;28;20513;-50
2021/11/11 09:30:45;;;;;;;0.20;0.10;;;;;;;2.83;100.00;101169.91;5019239;28;20525;-49
2021/11/11 09:33:12;;;;;;;0.20;0.10;;;;;;;2.38;100.00;101167.34;5025453;28;20498;-50
2021/11/11 09:35:39;;;;;;;0.20;0.10;;;;;;;2.38;100.00;101176.09;5032357;28;20452;-50
2021/11/11 09:38:05;;;;;;;0.20;0.10;;;;;;;2.59;100.00;101180.84;5034268;28;20509;-50
2021/11/11 09:40:33;;;;;;;0.20;0.10;;;;;;;2.38;100.00;101186.59;5009640;28;20499;-50
2021/11/11 09:43:00;;;;;;;0.20;0.10;;;;;;;2.44;100.00;101183.19;5035648;28;20525;-50
2021/11/11 09:45:30;;;;;;;0.20;0.10;;;;;;;2.38;100.00;101198.81;5036341;28;20506;-49
2021/11/11 09:47:58;;;;;;;0.20;0.10;;;;;;;2.37;100.00;101192.69;5035944;28;20474;-49
2021/11/11 09:50:28;;;;;;;0.20;0.10;;;;;;;2.65;100.00;101201.06;5035955;28;20463;-49
2021/11/11 09:52:54;;;;;;;0.67;0.67;;;;;;;2.60;100.00;101193.13;5018264;28;20506;-49
2021/11/11 10:00:57;;;;;;;0.20;0.10;;;;;;;2.63;100.00;101208.03;5017968;28;20503;-50
2021/11/11 10:03:24;;;;;;;0.20;0.10;;;;;;;2.55;100.00;101202.63;5035721;28;20459;-50
2021/11/11 10:05:51;;;;;;;0.20;0.10;;;;;;;2.61;100.00;101199.25;5035560;28;20503;-50
2021/11/11 10:08:49;;;;;;;0.20;0.10;;;;;;;2.59;100.00;101203.56;5036032;28;20455;-50
2021/11/11 10:11:36;;;;;;;0.20;0.10;;;;;;;2.65;100.00;101215.09;5035722;28;20447;-50
2021/11/11 10:14:10;;;;;;;0.20;0.10;;;;;;;2.62;100.00;101219.41;5035655;28;20447;-50
2021/11/11 10:16:42;;;;;;;0.20;0.10;;;;;;;2.84;100.00;101210.16;5035720;28;20502;-50
2021/11/11 10:19:09;;;;;;;0.27;0.20;;;;;;;2.69;100.00;101213.38;5017385;28;20495;-50
2021/11/11 10:22:03;;;;;;;0.20;0.10;;;;;;;2.64;100.00;101202.81;5035551;28;20456;-50
2021/11/11 10:24:46;;;;;;;0.20;0.10;;;;;;;2.61;100.00;101202.78;5011954;28;20518;-50
2021/11/11 10:27:28;;;;;;;1.27;0.60;;;;;;;3.14;100.00;101196.66;5021983;28;20952;-50
2021/11/11 10:30:12;;;;;;;0.20;0.20;;;;;;;2.89;100.00;101183.13;5024303;28;20965;-50
2021/11/11 10:32:52;;;;;;;0.20;0.20;;;;;;;2.81;100.00;101184.75;5011985;28;20937;-50
2021/11/11 10:35:24;;;;;;;0.20;0.10;;;;;;;2.92;100.00;101184.94;5035103;28;20447;-50
2021/11/11 10:38:14;;;;;;;23.67;2.53;;;;;;;3.08;100.00;101194.81;5035284;28;20478;-50
2021/11/11 10:40:45;;;;;;;0.20;0.10;;;;;;;3.12;100.00;101187.88;5035312;28;20499;-50
2021/11/11 10:43:18;;;;;;;0.67;0.67;;;;;;;3.14;100.00;101183.53;5034663;28;20448;-50
2021/11/11 10:45:47;;;;;;;0.20;0.10;;;;;;;3.19;100.00;101184.50;5034731;28;20448;-50
2021/11/11 10:48:17;;;;;;;0.20;0.10;;;;;;;3.18;100.00;101178.34;5035732;28;20544;-50
2021/11/11 10:50:51;;;;;;;0.30;0.20;;;;;;;3.15;100.00;101173.06;5035215;28;20495;-50
2021/11/11 10:53:26;;;;;;;0.20;0.20;;;;;;;3.20;100.00;101166.13;5034623;28;20447;-50
2021/11/11 10:55:57;;;;;;;0.20;0.20;;;;;;;3.12;100.00;101166.84;5034502;28;20493;-50
2021/11/11 10:58:26;;;;;;;0.20;0.10;;;;;;;3.04;100.00;101164.13;5035564;28;20498;-50
2021/11/11 11:00:58;;;;;;;0.33;0.33;;;;;;;3.11;100.00;101160.72;5029760;28;20553;-50
2021/11/11 11:03:30;;;;;;;0.70;0.70;;;;;;;3.14;100.00;101166.00;5034454;28;20813;-51
2021/11/11 11:06:12;;;;;;;0.20;0.10;;;;;;;3.25;100.00;101153.94;5034446;28;20462;-50
2021/11/11 11:08:43;;;;;;;0.20;0.20;;;;;;;3.33;100.00;101151.44;5022810;28;20445;-50
2021/11/11 11:11:20;;;;;;;0.30;0.20;;;;;;;3.47;100.00;101151.63;5033639;28;20506;-50
2021/11/11 11:13:46;;;;;;;0.20;0.10;;;;;;;3.59;100.00;101143.03;5034151;28;20447;-50
2021/11/11 11:16:16;;;;;;;0.30;0.23;;;;;;;3.56;100.00;101136.88;5034059;28;20479;-50
2021/11/11 11:18:58;;;;;;;0.20;0.20;;;;;;;3.52;100.00;101142.94;5034003;28;20860;-50
2021/11/11 11:21:26;;;;;;;0.20;0.20;;;;;;;3.82;100.00;101133.69;5033857;28;21062;-50
2021/11/11 11:23:59;;;;;;;1.80;1.80;;;;;;;3.85;100.00;101132.00;5033933;28;20451;-50
2021/11/11 11:26:32;;;;;;;0.50;0.50;;;;;;;4.05;100.00;101126.06;5023489;28;20448;-50
2021/11/11 11:29:27;;;;;;;0.20;0.20;;;;;;;4.41;100.00;101118.59;5028530;28;20472;-50
2021/11/11 11:34:42;;;;;;;0.20;0.20;;;;;;;4.84;100.00;101116.31;5033897;28;20479;-50
2021/11/11 11:37:21;;;;;;;0.30;0.20;;;;;;;4.89;100.00;101100.56;5033624;28;20479;-50
2021/11/11 11:39:55;;;;;;;1.17;1.17;;;;;;;4.87;100.00;101097.91;5033120;28;20526;-50
2021/11/11 11:42:24;;;;;;;0.20;0.20;;;;;;;5.26;100.00;101091.16;5033604;28;20510;-50
2021/11/11 11:44:59;;;;;;;0.30;0.20;;;;;;;5.04;100.00;101092.75;5033399;28;20579;-50
2021/11/11 11:50:08;;;;;;;0.20;0.10;;;;;;;4.65;100.00;101088.06;5033195;28;20517;-48
2021/11/11 11:52:37;;;;;;;0.20;0.20;;;;;;;4.73;100.00;101087.25;5034210;28;20458;-48
2021/11/11 12:03:20;;;;;;;0.40;0.40;;;;;;;5.26;100.00;101088.50;5033287;28;20447;-50
2021/11/11 12:06:26;;;;;;;0.30;0.20;;;;;;;5.62;100.00;101083.44;5033057;28;20447;-50
2021/11/11 12:09:11;;;;;;;0.37;0.33;;;;;;;5.86;100.00;101076.47;5032673;28;20578;-51
2021/11/11 12:14:24;;;;;;;0.67;0.67;;;;;;;5.63;100.00;101074.66;5032774;28;20443;-51
2021/11/11 12:17:24;;;;;;;0.83;0.83;;;;;;;5.84;100.00;101081.75;5032780;28;20443;-51